sensor_id;sensor_type;location;lat;lon;timestamp;temperature;humidity
14099;DHT22;7126;48.458;7.930;2022-08-21T00:02:18;17.70;99.90
14099;DHT22;7126;48.458;7.930;2022-08-21T00:04:44;17.70;99.90
14099;DHT22;7126;48.458;7.930;2022-08-21T00:07:10;17.70;99.90
14099;DHT22;7126;48.458;7.930;2022-08-21T00:09:36;17.70;99.90
14099;DHT22;7126;48.458;7.930;2022-08-21T00:12:02;17.80;99.90
14099;DHT22;7126;48.458;7.930;2022-08-21T00:14:28;17.70;99.90
14099;DHT22;7126;48.458;7.930;2022-08-21T00:16:54;17.70;99.90
14099;DHT22;7126;48.458;7.930;2022-08-21T00:19:19;17.70;99.90
14099;DHT22;7126;48.458;7.930;2022-08-21T00:21:46;17.70;99.90
14099;DHT22;7126;48.458;7.930;2022-08-21T00:24:12;17.70;99.90
14099;DHT22;7126;48.458;7.930;2022-08-21T00:26:38;17.70;99.90
14099;DHT22;7126;48.458;7.930;2022-08-21T00:29:04;17.70;99.90
14099;DHT22;7126;48.458;7.930;2022-08-21T00:31:30;17.60;99.90
14099;DHT22;7126;48.458;7.930;2022-08-21T00:33:55;17.50;99.90
14099;DHT22;7126;48.458;7.930;2022-08-21T00:36:21;17.50;99.90
14099;DHT22;7126;48.458;7.930;2022-08-21T00:38:46;17.40;99.90
14099;DHT22;7126;48.458;7.930;2022-08-21T00:41:12;17.50;99.90
14099;DHT22;7126;48.458;7.930;2022-08-21T00:43:38;17.40;99.90
14099;DHT22;7126;48.458;7.930;2022-08-21T00:46:05;17.30;99.90
14099;DHT22;7126;48.458;7.930;2022-08-21T00:48:32;17.30;99.90
14099;DHT22;7126;48.458;7.930;2022-08-21T00:51:11;17.30;99.90
14099;DHT22;7126;48.458;7.930;2022-08-21T00:53:41;17.30;99.90
14099;DHT22;7126;48.458;7.930;2022-08-21T00:56:09;17.20;99.90
14099;DHT22;7126;48.458;7.930;2022-08-21T00:58:38;17.20;99.90
14099;DHT22;7126;48.458;7.930;2022-08-21T01:01:06;17.20;99.90
14099;DHT22;7126;48.458;7.930;2022-08-21T01:03:32;17.20;99.90
14099;DHT22;7126;48.458;7.930;2022-08-21T01:05:57;17.20;99.90
14099;DHT22;7126;48.458;7.930;2022-08-21T01:08:23;17.20;99.90
14099;DHT22;7126;48.458;7.930;2022-08-21T01:10:49;17.20;99.90
14099;DHT22;7126;48.458;7.930;2022-08-21T01:13:18;17.20;99.90
14099;DHT22;7126;48.458;7.930;2022-08-21T01:15:46;17.10;99.90
14099;DHT22;7126;48.458;7.930;2022-08-21T01:18:17;17.00;99.90
14099;DHT22;7126;48.458;7.930;2022-08-21T01:23:29;17.10;99.90
14099;DHT22;7126;48.458;7.930;2022-08-21T01:25:55;17.00;99.90
14099;DHT22;7126;48.458;7.930;2022-08-21T01:28:21;17.00;99.90
14099;DHT22;7126;48.458;7.930;2022-08-21T01:30:48;17.00;99.90
14099;DHT22;7126;48.458;7.930;2022-08-21T01:33:18;16.90;99.90
14099;DHT22;7126;48.458;7.930;2022-08-21T01:35:44;16.90;99.90
14099;DHT22;7126;48.458;7.930;2022-08-21T01:38:09;16.90;99.90
14099;DHT22;7126;48.458;7.930;2022-08-21T01:40:35;16.90;99.90
14099;DHT22;7126;48.458;7.930;2022-08-21T01:43:01;16.90;99.90
14099;DHT22;7126;48.458;7.930;2022-08-21T01:45:27;16.90;99.90
14099;DHT22;7126;48.458;7.930;2022-08-21T01:47:53;16.80;99.90
14099;DHT22;7126;48.458;7.930;2022-08-21T01:50:20;16.80;99.90
14099;DHT22;7126;48.458;7.930;2022-08-21T01:52:46;16.80;99.90
14099;DHT22;7126;48.458;7.930;2022-08-21T01:55:13;16.70;99.90
14099;DHT22;7126;48.458;7.930;2022-08-21T01:57:39;16.70;99.90
14099;DHT22;7126;48.458;7.930;2022-08-21T02:00:09;16.70;99.90
14099;DHT22;7126;48.458;7.930;2022-08-21T02:02:36;16.70;99.90
14099;DHT22;7126;48.458;7.930;2022-08-21T02:05:03;16.60;99.90
14099;DHT22;7126;48.458;7.930;2022-08-21T02:07:38;16.60;99.90
14099;DHT22;7126;48.458;7.930;2022-08-21T02:10:07;16.60;99.90
14099;DHT22;7126;48.458;7.930;2022-08-21T02:12:33;16.60;99.90
14099;DHT22;7126;48.458;7.930;2022-08-21T02:14:59;16.60;99.90
14099;DHT22;7126;48.458;7.930;2022-08-21T02:17:24;16.60;99.90
14099;DHT22;7126;48.458;7.930;2022-08-21T02:19:50;16.60;99.90
14099;DHT22;7126;48.458;7.930;2022-08-21T02:22:15;16.60;99.90
14099;DHT22;7126;48.458;7.930;2022-08-21T02:24:41;16.60;99.90
14099;DHT22;7126;48.458;7.930;2022-08-21T02:27:06;16.60;99.90
14099;DHT22;7126;48.458;7.930;2022-08-21T02:29:32;16.60;99.90
14099;DHT22;7126;48.458;7.930;2022-08-21T02:31:58;16.60;99.90
14099;DHT22;7126;48.458;7.930;2022-08-21T02:34:24;16.60;99.90
14099;DHT22;7126;48.458;7.930;2022-08-21T02:36:49;16.60;99.90
14099;DHT22;7126;48.458;7.930;2022-08-21T02:39:15;16.50;99.90
14099;DHT22;7126;48.458;7.930;2022-08-21T02:41:40;16.50;99.90
14099;DHT22;7126;48.458;7.930;2022-08-21T02:44:06;16.50;99.90
14099;DHT22;7126;48.458;7.930;2022-08-21T02:46:31;16.50;99.90
14099;DHT22;7126;48.458;7.930;2022-08-21T02:48:57;16.40;99.90
14099;DHT22;7126;48.458;7.930;2022-08-21T02:51:23;16.40;99.90
14099;DHT22;7126;48.458;7.930;2022-08-21T02:53:50;16.30;99.90
14099;DHT22;7126;48.458;7.930;2022-08-21T02:56:19;16.30;99.90
14099;DHT22;7126;48.458;7.930;2022-08-21T02:58:48;16.30;99.90
14099;DHT22;7126;48.458;7.930;2022-08-21T03:01:15;16.20;99.90
14099;DHT22;7126;48.458;7.930;2022-08-21T03:03:43;16.20;99.90
14099;DHT22;7126;48.458;7.930;2022-08-21T03:06:13;16.20;99.90
14099;DHT22;7126;48.458;7.930;2022-08-21T03:08:39;16.20;99.90
14099;DHT22;7126;48.458;7.930;2022-08-21T03:11:05;16.20;99.90
14099;DHT22;7126;48.458;7.930;2022-08-21T03:13:31;16.20;99.90
14099;DHT22;7126;48.458;7.930;2022-08-21T03:15:57;16.20;99.90
14099;DHT22;7126;48.458;7.930;2022-08-21T03:18:23;16.20;99.90
14099;DHT22;7126;48.458;7.930;2022-08-21T03:20:49;16.20;99.90
14099;DHT22;7126;48.458;7.930;2022-08-21T03:23:16;16.20;99.90
14099;DHT22;7126;48.458;7.930;2022-08-21T03:25:43;16.20;99.90
14099;DHT22;7126;48.458;7.930;2022-08-21T03:28:11;16.20;99.90
14099;DHT22;7126;48.458;7.930;2022-08-21T03:30:37;16.20;99.90
14099;DHT22;7126;48.458;7.930;2022-08-21T03:33:03;16.10;99.90
14099;DHT22;7126;48.458;7.930;2022-08-21T03:35:30;16.20;99.90
14099;DHT22;7126;48.458;7.930;2022-08-21T03:37:56;16.10;99.90
14099;DHT22;7126;48.458;7.930;2022-08-21T03:40:22;16.10;99.90
14099;DHT22;7126;48.458;7.930;2022-08-21T03:42:49;16.10;99.90
14099;DHT22;7126;48.458;7.930;2022-08-21T03:45:17;16.00;99.90
14099;DHT22;7126;48.458;7.930;2022-08-21T03:47:54;16.00;99.90
14099;DHT22;7126;48.458;7.930;2022-08-21T03:50:22;16.00;99.90
14099;DHT22;7126;48.458;7.930;2022-08-21T03:52:48;16.10;99.90
14099;DHT22;7126;48.458;7.930;2022-08-21T03:55:13;16.10;99.90
14099;DHT22;7126;48.458;7.930;2022-08-21T03:57:39;16.10;99.90
14099;DHT22;7126;48.458;7.930;2022-08-21T04:00:05;16.10;99.90
14099;DHT22;7126;48.458;7.930;2022-08-21T04:02:34;16.10;99.90
14099;DHT22;7126;48.458;7.930;2022-08-21T04:04:59;16.00;99.90
14099;DHT22;7126;48.458;7.930;2022-08-21T04:07:25;15.90;99.90
14099;DHT22;7126;48.458;7.930;2022-08-21T04:09:50;16.00;99.90
14099;DHT22;7126;48.458;7.930;2022-08-21T04:12:16;16.00;99.90
14099;DHT22;7126;48.458;7.930;2022-08-21T04:14:42;16.00;99.90
14099;DHT22;7126;48.458;7.930;2022-08-21T04:17:07;16.00;99.90
14099;DHT22;7126;48.458;7.930;2022-08-21T04:19:33;16.00;99.90
14099;DHT22;7126;48.458;7.930;2022-08-21T04:21:58;16.10;99.90
14099;DHT22;7126;48.458;7.930;2022-08-21T04:24:24;16.20;99.90
14099;DHT22;7126;48.458;7.930;2022-08-21T04:26:49;16.20;99.90
14099;DHT22;7126;48.458;7.930;2022-08-21T04:29:15;16.20;99.90
14099;DHT22;7126;48.458;7.930;2022-08-21T04:31:41;16.10;99.90
14099;DHT22;7126;48.458;7.930;2022-08-21T04:34:08;16.10;99.90
14099;DHT22;7126;48.458;7.930;2022-08-21T04:36:34;16.00;99.90
14099;DHT22;7126;48.458;7.930;2022-08-21T04:39:02;16.00;99.90
14099;DHT22;7126;48.458;7.930;2022-08-21T04:41:28;16.00;99.90
14099;DHT22;7126;48.458;7.930;2022-08-21T04:43:54;16.00;99.90
14099;DHT22;7126;48.458;7.930;2022-08-21T04:46:21;15.90;99.90
14099;DHT22;7126;48.458;7.930;2022-08-21T04:48:47;16.00;99.90
14099;DHT22;7126;48.458;7.930;2022-08-21T04:51:22;15.90;99.90
14099;DHT22;7126;48.458;7.930;2022-08-21T04:53:54;15.90;99.90
14099;DHT22;7126;48.458;7.930;2022-08-21T04:58:53;15.90;99.90
14099;DHT22;7126;48.458;7.930;2022-08-21T05:01:23;15.80;99.90
14099;DHT22;7126;48.458;7.930;2022-08-21T05:03:53;15.80;99.90
14099;DHT22;7126;48.458;7.930;2022-08-21T05:06:20;15.90;99.90
14099;DHT22;7126;48.458;7.930;2022-08-21T05:08:47;15.90;99.90
14099;DHT22;7126;48.458;7.930;2022-08-21T05:11:14;15.90;99.90
14099;DHT22;7126;48.458;7.930;2022-08-21T05:13:39;16.00;99.90
14099;DHT22;7126;48.458;7.930;2022-08-21T05:16:07;16.00;99.90
14099;DHT22;7126;48.458;7.930;2022-08-21T05:18:32;15.90;99.90
14099;DHT22;7126;48.458;7.930;2022-08-21T05:20:58;15.90;99.90
14099;DHT22;7126;48.458;7.930;2022-08-21T05:23:24;15.90;99.90
14099;DHT22;7126;48.458;7.930;2022-08-21T05:25:51;15.90;99.90
14099;DHT22;7126;48.458;7.930;2022-08-21T05:28:17;15.90;99.90
14099;DHT22;7126;48.458;7.930;2022-08-21T05:30:43;15.80;99.90
14099;DHT22;7126;48.458;7.930;2022-08-21T05:33:09;15.80;99.90
14099;DHT22;7126;48.458;7.930;2022-08-21T05:35:36;15.90;99.90
14099;DHT22;7126;48.458;7.930;2022-08-21T05:38:03;15.80;99.90
14099;DHT22;7126;48.458;7.930;2022-08-21T05:40:29;15.80;99.90
14099;DHT22;7126;48.458;7.930;2022-08-21T05:42:55;15.90;99.90
14099;DHT22;7126;48.458;7.930;2022-08-21T05:45:26;15.90;99.90
14099;DHT22;7126;48.458;7.930;2022-08-21T05:47:52;16.00;99.90
14099;DHT22;7126;48.458;7.930;2022-08-21T05:50:17;16.10;99.90
14099;DHT22;7126;48.458;7.930;2022-08-21T05:52:43;16.10;99.90
14099;DHT22;7126;48.458;7.930;2022-08-21T05:55:09;16.10;99.90
14099;DHT22;7126;48.458;7.930;2022-08-21T05:57:34;16.10;99.90
14099;DHT22;7126;48.458;7.930;2022-08-21T06:00:00;16.20;99.90
14099;DHT22;7126;48.458;7.930;2022-08-21T06:02:25;16.30;99.90
14099;DHT22;7126;48.458;7.930;2022-08-21T06:04:51;16.30;99.90
14099;DHT22;7126;48.458;7.930;2022-08-21T06:07:17;16.30;99.90
14099;DHT22;7126;48.458;7.930;2022-08-21T06:09:42;16.30;99.90
14099;DHT22;7126;48.458;7.930;2022-08-21T06:12:10;16.30;99.90
14099;DHT22;7126;48.458;7.930;2022-08-21T06:14:38;16.40;99.90
14099;DHT22;7126;48.458;7.930;2022-08-21T06:17:05;16.40;99.90
14099;DHT22;7126;48.458;7.930;2022-08-21T06:19:31;16.50;99.90
14099;DHT22;7126;48.458;7.930;2022-08-21T06:21:57;16.50;99.90
14099;DHT22;7126;48.458;7.930;2022-08-21T06:24:23;16.50;99.90
14099;DHT22;7126;48.458;7.930;2022-08-21T06:26:48;16.60;99.90
14099;DHT22;7126;48.458;7.930;2022-08-21T06:29:14;16.70;99.90
14099;DHT22;7126;48.458;7.930;2022-08-21T06:31:43;16.70;99.90
14099;DHT22;7126;48.458;7.930;2022-08-21T06:34:09;16.80;99.90
14099;DHT22;7126;48.458;7.930;2022-08-21T06:36:34;16.80;99.90
14099;DHT22;7126;48.458;7.930;2022-08-21T06:39:00;16.80;99.90
14099;DHT22;7126;48.458;7.930;2022-08-21T06:41:26;16.90;99.90
14099;DHT22;7126;48.458;7.930;2022-08-21T06:43:53;17.00;99.90
14099;DHT22;7126;48.458;7.930;2022-08-21T06:46:19;17.00;99.90
14099;DHT22;7126;48.458;7.930;2022-08-21T06:48:44;17.10;99.90
14099;DHT22;7126;48.458;7.930;2022-08-21T06:51:11;17.20;99.90
14099;DHT22;7126;48.458;7.930;2022-08-21T06:53:37;17.30;99.90
14099;DHT22;7126;48.458;7.930;2022-08-21T06:56:03;17.40;99.90
14099;DHT22;7126;48.458;7.930;2022-08-21T06:58:28;17.50;99.90
14099;DHT22;7126;48.458;7.930;2022-08-21T07:00:54;17.60;99.90
14099;DHT22;7126;48.458;7.930;2022-08-21T07:03:26;17.70;99.90
14099;DHT22;7126;48.458;7.930;2022-08-21T07:05:55;17.70;99.90
14099;DHT22;7126;48.458;7.930;2022-08-21T07:08:24;17.70;99.90
14099;DHT22;7126;48.458;7.930;2022-08-21T07:10:53;17.90;99.90
14099;DHT22;7126;48.458;7.930;2022-08-21T07:13:19;17.90;99.90
14099;DHT22;7126;48.458;7.930;2022-08-21T07:15:45;18.00;99.90
14099;DHT22;7126;48.458;7.930;2022-08-21T07:18:11;18.00;99.90
14099;DHT22;7126;48.458;7.930;2022-08-21T07:20:38;18.20;99.90
14099;DHT22;7126;48.458;7.930;2022-08-21T07:23:11;18.20;99.90
14099;DHT22;7126;48.458;7.930;2022-08-21T07:25:37;18.40;99.90
14099;DHT22;7126;48.458;7.930;2022-08-21T07:28:03;18.50;99.90
14099;DHT22;7126;48.458;7.930;2022-08-21T07:30:29;18.60;99.90
14099;DHT22;7126;48.458;7.930;2022-08-21T07:32:55;18.70;99.90
14099;DHT22;7126;48.458;7.930;2022-08-21T07:35:22;18.80;99.90
14099;DHT22;7126;48.458;7.930;2022-08-21T07:37:48;18.90;99.90
14099;DHT22;7126;48.458;7.930;2022-08-21T07:40:14;19.00;99.90
14099;DHT22;7126;48.458;7.930;2022-08-21T07:42:45;19.10;99.90
14099;DHT22;7126;48.458;7.930;2022-08-21T07:45:12;19.20;99.90
14099;DHT22;7126;48.458;7.930;2022-08-21T07:47:38;19.30;99.90
14099;DHT22;7126;48.458;7.930;2022-08-21T07:50:05;19.40;99.90
14099;DHT22;7126;48.458;7.930;2022-08-21T07:52:32;19.50;99.90
14099;DHT22;7126;48.458;7.930;2022-08-21T07:54:58;19.60;99.90
14099;DHT22;7126;48.458;7.930;2022-08-21T07:57:24;19.70;99.90
14099;DHT22;7126;48.458;7.930;2022-08-21T07:59:49;19.80;99.90
14099;DHT22;7126;48.458;7.930;2022-08-21T08:02:26;19.90;99.90
14099;DHT22;7126;48.458;7.930;2022-08-21T08:04:52;19.90;99.90
14099;DHT22;7126;48.458;7.930;2022-08-21T08:07:18;20.00;99.90
14099;DHT22;7126;48.458;7.930;2022-08-21T08:09:44;20.10;99.90
14099;DHT22;7126;48.458;7.930;2022-08-21T08:12:10;20.20;99.90
14099;DHT22;7126;48.458;7.930;2022-08-21T08:14:36;20.30;99.90
14099;DHT22;7126;48.458;7.930;2022-08-21T08:17:02;20.30;99.90
14099;DHT22;7126;48.458;7.930;2022-08-21T08:19:28;20.40;99.90
14099;DHT22;7126;48.458;7.930;2022-08-21T08:21:54;20.50;99.90
14099;DHT22;7126;48.458;7.930;2022-08-21T08:24:20;20.70;99.90
14099;DHT22;7126;48.458;7.930;2022-08-21T08:26:46;20.70;99.90
14099;DHT22;7126;48.458;7.930;2022-08-21T08:29:12;20.80;99.90
14099;DHT22;7126;48.458;7.930;2022-08-21T08:31:38;20.90;99.90
14099;DHT22;7126;48.458;7.930;2022-08-21T08:34:04;21.00;99.90
14099;DHT22;7126;48.458;7.930;2022-08-21T08:36:36;21.00;99.90
14099;DHT22;7126;48.458;7.930;2022-08-21T08:39:04;21.10;99.90
14099;DHT22;7126;48.458;7.930;2022-08-21T08:41:30;21.30;99.90
14099;DHT22;7126;48.458;7.930;2022-08-21T08:44:00;21.40;99.90
14099;DHT22;7126;48.458;7.930;2022-08-21T08:46:48;21.50;99.90
14099;DHT22;7126;48.458;7.930;2022-08-21T08:49:37;21.60;99.90
14099;DHT22;7126;48.458;7.930;2022-08-21T08:52:20;21.60;99.90
14099;DHT22;7126;48.458;7.930;2022-08-21T08:54:55;21.70;99.90
14099;DHT22;7126;48.458;7.930;2022-08-21T08:57:24;21.80;99.90
14099;DHT22;7126;48.458;7.930;2022-08-21T08:59:53;22.00;99.90
14099;DHT22;7126;48.458;7.930;2022-08-21T09:02:20;22.10;99.90
14099;DHT22;7126;48.458;7.930;2022-08-21T09:04:49;22.20;99.90
14099;DHT22;7126;48.458;7.930;2022-08-21T09:16:27;22.50;99.90
14099;DHT22;7126;48.458;7.930;2022-08-21T09:22:08;22.70;99.90
14099;DHT22;7126;48.458;7.930;2022-08-21T09:27:20;22.90;99.90
14099;DHT22;7126;48.458;7.930;2022-08-21T09:29:49;23.00;99.90
14099;DHT22;7126;48.458;7.930;2022-08-21T09:32:28;23.10;99.90
14099;DHT22;7126;48.458;7.930;2022-08-21T09:35:01;23.20;99.90
14099;DHT22;7126;48.458;7.930;2022-08-21T09:37:30;23.30;99.90
14099;DHT22;7126;48.458;7.930;2022-08-21T09:39:58;23.50;99.90
14099;DHT22;7126;48.458;7.930;2022-08-21T09:42:27;23.60;99.90
14099;DHT22;7126;48.458;7.930;2022-08-21T09:45:25;23.70;99.90
14099;DHT22;7126;48.458;7.930;2022-08-21T09:47:50;23.80;99.90
14099;DHT22;7126;48.458;7.930;2022-08-21T09:50:22;23.90;99.90
14099;DHT22;7126;48.458;7.930;2022-08-21T09:52:52;24.00;99.90
14099;DHT22;7126;48.458;7.930;2022-08-21T09:55:49;24.10;99.90
14099;DHT22;7126;48.458;7.930;2022-08-21T09:58:36;24.20;99.90
14099;DHT22;7126;48.458;7.930;2022-08-21T10:01:04;24.30;99.90
14099;DHT22;7126;48.458;7.930;2022-08-21T10:03:30;24.40;99.90
14099;DHT22;7126;48.458;7.930;2022-08-21T10:06:00;24.50;99.90
14099;DHT22;7126;48.458;7.930;2022-08-21T10:08:28;24.70;99.90
14099;DHT22;7126;48.458;7.930;2022-08-21T10:11:02;24.80;99.90
14099;DHT22;7126;48.458;7.930;2022-08-21T10:24:42;25.30;99.90
14099;DHT22;7126;48.458;7.930;2022-08-21T10:27:15;25.40;99.90
14099;DHT22;7126;48.458;7.930;2022-08-21T10:32:23;25.60;99.90
14099;DHT22;7126;48.458;7.930;2022-08-21T10:35:08;25.70;99.90
14099;DHT22;7126;48.458;7.930;2022-08-21T10:40:42;26.00;99.90
14099;DHT22;7126;48.458;7.930;2022-08-21T10:51:59;26.40;99.90
14099;DHT22;7126;48.458;7.930;2022-08-21T10:54:41;26.40;99.90
14099;DHT22;7126;48.458;7.930;2022-08-21T10:57:14;26.50;99.90
14099;DHT22;7126;48.458;7.930;2022-08-21T11:02:33;26.50;99.90
14099;DHT22;7126;48.458;7.930;2022-08-21T11:08:04;26.80;99.90
14099;DHT22;7126;48.458;7.930;2022-08-21T11:11:15;27.00;99.90
14099;DHT22;7126;48.458;7.930;2022-08-21T11:13:58;27.20;99.90
14099;DHT22;7126;48.458;7.930;2022-08-21T11:16:41;27.40;99.90
14099;DHT22;7126;48.458;7.930;2022-08-21T11:19:22;27.50;99.90
14099;DHT22;7126;48.458;7.930;2022-08-21T11:22:11;27.50;99.90
14099;DHT22;7126;48.458;7.930;2022-08-21T11:27:24;27.60;99.90
14099;DHT22;7126;48.458;7.930;2022-08-21T11:29:59;27.70;99.90
14099;DHT22;7126;48.458;7.930;2022-08-21T11:41:23;28.00;99.90
14099;DHT22;7126;48.458;7.930;2022-08-21T11:44:10;28.10;99.90
14099;DHT22;7126;48.458;7.930;2022-08-21T11:49:23;28.40;99.90
14099;DHT22;7126;48.458;7.930;2022-08-21T11:52:31;28.50;99.90
14099;DHT22;7126;48.458;7.930;2022-08-21T11:55:19;28.50;99.40
14099;DHT22;7126;48.458;7.930;2022-08-21T11:57:57;28.50;98.10
14099;DHT22;7126;48.458;7.930;2022-08-21T12:00:30;28.50;99.10
14099;DHT22;7126;48.458;7.930;2022-08-21T12:03:06;28.50;99.90
14099;DHT22;7126;48.458;7.930;2022-08-21T12:05:36;28.50;99.90
14099;DHT22;7126;48.458;7.930;2022-08-21T12:08:13;28.60;99.30
14099;DHT22;7126;48.458;7.930;2022-08-21T12:10:58;28.70;97.40
14099;DHT22;7126;48.458;7.930;2022-08-21T12:13:28;28.80;98.70
14099;DHT22;7126;48.458;7.930;2022-08-21T12:18:36;29.10;99.90
14099;DHT22;7126;48.458;7.930;2022-08-21T12:21:23;29.20;99.90
14099;DHT22;7126;48.458;7.930;2022-08-21T12:24:04;29.30;99.90
14099;DHT22;7126;48.458;7.930;2022-08-21T12:26:35;29.40;99.90
14099;DHT22;7126;48.458;7.930;2022-08-21T12:29:12;29.50;99.30
14099;DHT22;7126;48.458;7.930;2022-08-21T12:34:26;29.70;97.10
14099;DHT22;7126;48.458;7.930;2022-08-21T12:39:44;29.50;96.40
14099;DHT22;7126;48.458;7.930;2022-08-21T12:42:39;29.50;96.40
14099;DHT22;7126;48.458;7.930;2022-08-21T12:45:23;29.60;96.90
14099;DHT22;7126;48.458;7.930;2022-08-21T12:48:41;29.70;96.70
14099;DHT22;7126;48.458;7.930;2022-08-21T12:50:51;29.80;96.10
14099;DHT22;7126;48.458;7.930;2022-08-21T12:53:42;29.70;96.50
14099;DHT22;7126;48.458;7.930;2022-08-21T12:56:14;29.90;95.20
14099;DHT22;7126;48.458;7.930;2022-08-21T12:58:45;29.90;96.00
14099;DHT22;7126;48.458;7.930;2022-08-21T13:03:46;30.00;96.90
14099;DHT22;7126;48.458;7.930;2022-08-21T13:06:15;30.00;94.00
14099;DHT22;7126;48.458;7.930;2022-08-21T13:08:44;30.00;94.20
14099;DHT22;7126;48.458;7.930;2022-08-21T13:11:10;30.00;93.10
14099;DHT22;7126;48.458;7.930;2022-08-21T13:13:40;30.00;92.50
14099;DHT22;7126;48.458;7.930;2022-08-21T13:16:07;29.80;93.70
14099;DHT22;7126;48.458;7.930;2022-08-21T13:18:35;29.80;92.60
14099;DHT22;7126;48.458;7.930;2022-08-21T13:21:07;29.80;93.10
14099;DHT22;7126;48.458;7.930;2022-08-21T13:23:35;29.80;93.60
14099;DHT22;7126;48.458;7.930;2022-08-21T13:26:00;29.80;92.80
14099;DHT22;7126;48.458;7.930;2022-08-21T13:28:35;29.90;92.80
14099;DHT22;7126;48.458;7.930;2022-08-21T13:31:07;29.90;92.40
14099;DHT22;7126;48.458;7.930;2022-08-21T13:33:37;30.00;94.40
14099;DHT22;7126;48.458;7.930;2022-08-21T13:36:25;30.10;93.60
14099;DHT22;7126;48.458;7.930;2022-08-21T13:38:52;30.20;92.30
14099;DHT22;7126;48.458;7.930;2022-08-21T13:41:20;30.30;92.40
14099;DHT22;7126;48.458;7.930;2022-08-21T13:43:56;30.40;92.10
14099;DHT22;7126;48.458;7.930;2022-08-21T13:46:24;30.40;92.80
14099;DHT22;7126;48.458;7.930;2022-08-21T13:48:53;30.50;93.40
14099;DHT22;7126;48.458;7.930;2022-08-21T13:51:19;30.40;90.20
14099;DHT22;7126;48.458;7.930;2022-08-21T13:53:50;30.30;90.50
14099;DHT22;7126;48.458;7.930;2022-08-21T13:56:31;30.30;93.10
14099;DHT22;7126;48.458;7.930;2022-08-21T13:58:59;30.40;91.70
14099;DHT22;7126;48.458;7.930;2022-08-21T14:01:31;30.20;91.10
14099;DHT22;7126;48.458;7.930;2022-08-21T14:04:18;30.20;93.30
14099;DHT22;7126;48.458;7.930;2022-08-21T14:06:46;30.30;90.70
14099;DHT22;7126;48.458;7.930;2022-08-21T14:09:39;30.20;90.10
14099;DHT22;7126;48.458;7.930;2022-08-21T14:12:29;30.30;91.20
14099;DHT22;7126;48.458;7.930;2022-08-21T14:15:03;30.40;90.10
14099;DHT22;7126;48.458;7.930;2022-08-21T14:17:36;30.40;89.30
14099;DHT22;7126;48.458;7.930;2022-08-21T14:20:05;30.40;90.90
14099;DHT22;7126;48.458;7.930;2022-08-21T14:22:41;30.50;89.30
14099;DHT22;7126;48.458;7.930;2022-08-21T14:30:31;30.40;90.60
14099;DHT22;7126;48.458;7.930;2022-08-21T14:32:57;30.50;90.20
14099;DHT22;7126;48.458;7.930;2022-08-21T14:35:24;30.40;90.10
14099;DHT22;7126;48.458;7.930;2022-08-21T14:37:50;30.40;90.10
14099;DHT22;7126;48.458;7.930;2022-08-21T14:40:18;30.40;90.20
14099;DHT22;7126;48.458;7.930;2022-08-21T14:42:45;30.40;90.70
14099;DHT22;7126;48.458;7.930;2022-08-21T14:45:18;30.40;90.60
14099;DHT22;7126;48.458;7.930;2022-08-21T14:47:45;30.40;90.00
14099;DHT22;7126;48.458;7.930;2022-08-21T14:50:11;30.30;86.90
14099;DHT22;7126;48.458;7.930;2022-08-21T14:52:37;30.30;87.80
14099;DHT22;7126;48.458;7.930;2022-08-21T14:55:04;30.30;91.30
14099;DHT22;7126;48.458;7.930;2022-08-21T14:57:32;30.40;89.30
14099;DHT22;7126;48.458;7.930;2022-08-21T14:59:58;30.40;85.50
14099;DHT22;7126;48.458;7.930;2022-08-21T15:02:25;30.30;86.20
14099;DHT22;7126;48.458;7.930;2022-08-21T15:04:51;30.30;86.10
14099;DHT22;7126;48.458;7.930;2022-08-21T15:07:16;30.10;84.10
14099;DHT22;7126;48.458;7.930;2022-08-21T15:09:42;30.10;87.40
14099;DHT22;7126;48.458;7.930;2022-08-21T15:12:08;30.10;88.10
14099;DHT22;7126;48.458;7.930;2022-08-21T15:14:37;30.10;88.30
14099;DHT22;7126;48.458;7.930;2022-08-21T15:17:05;30.10;83.50
14099;DHT22;7126;48.458;7.930;2022-08-21T15:19:31;30.00;86.00
14099;DHT22;7126;48.458;7.930;2022-08-21T15:21:57;30.00;84.70
14099;DHT22;7126;48.458;7.930;2022-08-21T15:24:22;29.80;84.50
14099;DHT22;7126;48.458;7.930;2022-08-21T15:26:48;29.60;83.50
14099;DHT22;7126;48.458;7.930;2022-08-21T15:29:15;29.60;90.40
14099;DHT22;7126;48.458;7.930;2022-08-21T15:31:54;29.70;87.50
14099;DHT22;7126;48.458;7.930;2022-08-21T15:34:20;29.70;85.20
14099;DHT22;7126;48.458;7.930;2022-08-21T15:36:46;29.60;88.00
14099;DHT22;7126;48.458;7.930;2022-08-21T15:39:12;29.60;85.20
14099;DHT22;7126;48.458;7.930;2022-08-21T15:41:37;29.50;89.50
14099;DHT22;7126;48.458;7.930;2022-08-21T15:44:03;29.50;82.00
14099;DHT22;7126;48.458;7.930;2022-08-21T15:46:29;29.30;84.70
14099;DHT22;7126;48.458;7.930;2022-08-21T15:48:54;29.30;86.40
14099;DHT22;7126;48.458;7.930;2022-08-21T15:51:20;29.10;79.60
14099;DHT22;7126;48.458;7.930;2022-08-21T15:53:46;28.90;81.70
14099;DHT22;7126;48.458;7.930;2022-08-21T15:56:22;28.80;83.10
14099;DHT22;7126;48.458;7.930;2022-08-21T15:58:49;28.70;81.00
14099;DHT22;7126;48.458;7.930;2022-08-21T16:01:15;28.70;83.50
14099;DHT22;7126;48.458;7.930;2022-08-21T16:03:43;28.70;84.00
14099;DHT22;7126;48.458;7.930;2022-08-21T16:06:10;28.70;83.60
14099;DHT22;7126;48.458;7.930;2022-08-21T16:08:35;28.70;81.90
14099;DHT22;7126;48.458;7.930;2022-08-21T16:11:01;28.70;88.90
14099;DHT22;7126;48.458;7.930;2022-08-21T16:13:31;28.70;88.20
14099;DHT22;7126;48.458;7.930;2022-08-21T16:16:00;28.60;84.40
14099;DHT22;7126;48.458;7.930;2022-08-21T16:18:26;28.60;87.90
14099;DHT22;7126;48.458;7.930;2022-08-21T16:20:52;28.50;81.00
14099;DHT22;7126;48.458;7.930;2022-08-21T16:23:17;28.40;84.90
14099;DHT22;7126;48.458;7.930;2022-08-21T16:25:44;28.30;82.40
14099;DHT22;7126;48.458;7.930;2022-08-21T16:28:13;28.30;87.40
14099;DHT22;7126;48.458;7.930;2022-08-21T16:30:39;28.20;80.40
14099;DHT22;7126;48.458;7.930;2022-08-21T16:33:21;28.20;86.00
14099;DHT22;7126;48.458;7.930;2022-08-21T16:35:47;28.20;87.10
14099;DHT22;7126;48.458;7.930;2022-08-21T16:38:12;28.20;81.40
14099;DHT22;7126;48.458;7.930;2022-08-21T16:40:38;28.10;89.60
14099;DHT22;7126;48.458;7.930;2022-08-21T16:43:04;28.10;88.20
14099;DHT22;7126;48.458;7.930;2022-08-21T16:45:30;28.00;88.60
14099;DHT22;7126;48.458;7.930;2022-08-21T16:47:55;27.80;91.70
14099;DHT22;7126;48.458;7.930;2022-08-21T16:50:22;27.70;92.40
14099;DHT22;7126;48.458;7.930;2022-08-21T16:52:49;27.60;93.00
14099;DHT22;7126;48.458;7.930;2022-08-21T16:55:15;27.50;92.00
14099;DHT22;7126;48.458;7.930;2022-08-21T16:57:41;27.30;91.40
14099;DHT22;7126;48.458;7.930;2022-08-21T17:00:08;27.20;93.20
14099;DHT22;7126;48.458;7.930;2022-08-21T17:02:44;27.10;94.50
14099;DHT22;7126;48.458;7.930;2022-08-21T17:05:10;27.00;94.30
14099;DHT22;7126;48.458;7.930;2022-08-21T17:07:37;26.80;94.80
14099;DHT22;7126;48.458;7.930;2022-08-21T17:10:04;26.60;95.30
14099;DHT22;7126;48.458;7.930;2022-08-21T17:12:30;26.60;95.20
14099;DHT22;7126;48.458;7.930;2022-08-21T17:15:05;26.40;94.60
14099;DHT22;7126;48.458;7.930;2022-08-21T17:17:32;26.40;95.00
14099;DHT22;7126;48.458;7.930;2022-08-21T17:19:58;26.30;95.50